Main page
METAR-TAF:

METAR-TAF

Airports :

Agra Airport

Agra, India

latitude: 27-09-27N, longitude: 077-57-39E, elevation: 168 m

METAR: missing

Time: 10:12 (04:42 UTC)

Forecast

The report was made 7 hours and 12 minutes ago, at 21:30 UTC
Forecast valid from 03 at 00 UTC to 03 at 12 UTC
Wind 5 kt from the Northwest
Visibility: 1000 m
Scattered clouds at a height of 2000 ft
Broken clouds at a height of 9000 ft
mist
Becoming
from 03 at 02 UTC to 03 at 03 UTC
Visibility: 2000 m
mist
Becoming
from 03 at 04 UTC to 03 at 05 UTC
Visibility: 3000 m
mist
Temporary
from 03 at 09 UTC to 03 at 12 UTC
Wind 7 kt from the Northwest
Visibility: 3000 m
Scattered clouds at a height of 2000 ft
Broken clouds at a height of 10000 ft
light rain, mist

TAF: VIAG 022130Z 0300/0312 32005KT 1000 BR SCT020 BKN090 BECMG 0302/0303 2000 BR BECMG 0304/0305 3000 BR TEMPO 0309/0312 32007KT 3000 -RABR SCT020 BKN100

Weather observations and forecasts of more than 4000 airports (METAR and TAF reports).

The available stations are represented by yellow and red dots on the map.

Hover mouse over dot to see the name of the station.

Then click to see weather observations and forecasts.

To change the map : click on the green buttons with a black cross to zoom in, on the green button with a dash to zoom out, or on the green arrows for adjacent maps.


METAR-TAF: